createdAt,value
2023-05-10T00:00:42.864Z,702.00
2023-05-10T00:01:42.885Z,700.00
2023-05-10T00:02:43.101Z,699.00
2023-05-10T00:03:43.071Z,701.00
2023-05-10T00:04:42.878Z,701.00
2023-05-10T00:05:42.889Z,700.00
2023-05-10T00:06:42.900Z,699.00
2023-05-10T00:07:42.897Z,697.00
2023-05-10T00:08:42.922Z,698.00
2023-05-10T00:09:42.915Z,698.00
2023-05-10T00:10:42.915Z,698.00
2023-05-10T00:11:42.897Z,701.00
2023-05-10T00:12:43.040Z,699.00
2023-05-10T00:13:43.326Z,699.00
2023-05-10T00:14:43.060Z,701.00
2023-05-10T00:15:43.139Z,699.00
2023-05-10T00:16:43.220Z,702.00
2023-05-10T00:17:43.278Z,703.00
2023-05-10T00:18:43.268Z,702.00
2023-05-10T00:19:43.302Z,700.00
2023-05-10T00:20:43.330Z,700.00
2023-05-10T00:21:43.382Z,700.00
2023-05-10T00:22:43.411Z,700.00
2023-05-10T00:23:43.839Z,702.00
2023-05-10T00:24:43.501Z,702.00
2023-05-10T00:25:43.517Z,699.00
2023-05-10T00:26:43.568Z,698.00
2023-05-10T00:27:43.587Z,698.00
2023-05-10T00:28:43.636Z,700.00
2023-05-10T00:29:43.627Z,700.00
2023-05-10T00:30:43.643Z,700.00
2023-05-10T00:31:43.716Z,702.00
2023-05-10T00:32:43.727Z,704.00
2023-05-10T00:33:43.764Z,702.00
2023-05-10T00:34:43.728Z,701.00
2023-05-10T00:35:43.777Z,700.00
2023-05-10T00:36:43.817Z,702.00
2023-05-10T00:37:43.907Z,704.00
2023-05-10T00:38:44.364Z,704.00
2023-05-10T00:39:43.910Z,706.00
2023-05-10T00:40:43.965Z,703.00
2023-05-10T00:41:44.033Z,703.00
2023-05-10T00:42:44.029Z,703.00
2023-05-10T00:43:44.068Z,703.00
2023-05-10T00:44:44.099Z,705.00
2023-05-10T00:45:44.192Z,700.00
2023-05-10T00:46:44.199Z,696.00
2023-05-10T00:47:44.304Z,696.00
2023-05-10T00:48:44.388Z,696.00
2023-05-10T00:49:44.320Z,697.00
2023-05-10T00:50:44.366Z,697.00
2023-05-10T00:51:44.413Z,700.00
2023-05-10T00:52:44.448Z,703.00
2023-05-10T00:53:44.841Z,703.00
2023-05-10T00:54:44.550Z,701.00
2023-05-10T00:55:44.565Z,699.00
2023-05-10T00:56:44.615Z,698.00
2023-05-10T00:57:44.650Z,699.00
2023-05-10T00:58:44.876Z,701.00
2023-05-10T00:59:44.706Z,703.00
2023-05-10T01:00:44.715Z,704.00
2023-05-10T01:01:44.781Z,703.00
2023-05-10T01:02:44.814Z,704.00
2023-05-10T01:03:44.909Z,704.00
2023-05-10T01:04:44.803Z,701.00
2023-05-10T01:05:44.818Z,700.00
2023-05-10T01:06:44.788Z,701.00
2023-05-10T01:07:44.848Z,703.00
2023-05-10T01:08:44.882Z,702.00
2023-05-10T01:09:44.899Z,702.00
2023-05-10T01:10:44.880Z,701.00
2023-05-10T01:11:44.974Z,703.00
2023-05-10T01:12:45.013Z,700.00
2023-05-10T01:13:44.981Z,700.00
2023-05-10T01:14:44.960Z,697.00
2023-05-10T01:15:45.021Z,696.00
2023-05-10T01:16:44.998Z,698.00
2023-05-10T01:17:45.050Z,699.00
2023-05-10T01:18:45.016Z,700.00
2023-05-10T01:19:45.057Z,700.00
2023-05-10T01:20:45.132Z,699.00
2023-05-10T01:21:45.129Z,701.00
2023-05-10T01:22:45.177Z,703.00
2023-05-10T01:23:45.355Z,700.00
2023-05-10T01:24:45.204Z,699.00
2023-05-10T01:25:45.235Z,700.00
2023-05-10T01:26:45.245Z,701.00
2023-05-10T01:27:45.278Z,700.00
2023-05-10T01:28:45.369Z,701.00
2023-05-10T01:29:45.306Z,704.00
2023-05-10T01:30:45.337Z,704.00
2023-05-10T01:31:45.350Z,704.00
2023-05-10T01:32:45.359Z,703.00
2023-05-10T01:33:45.365Z,703.00
2023-05-10T01:34:45.292Z,702.00
2023-05-10T01:35:45.285Z,701.00
2023-05-10T01:36:45.347Z,704.00
2023-05-10T01:37:45.367Z,705.00
2023-05-10T01:38:45.896Z,703.00
2023-05-10T01:39:45.376Z,703.00
2023-05-10T01:40:45.380Z,703.00
2023-05-10T01:41:45.392Z,702.00
2023-05-10T01:42:45.395Z,702.00
2023-05-10T01:43:45.878Z,701.00
2023-05-10T01:44:45.403Z,703.00
2023-05-10T01:45:45.406Z,702.00
2023-05-10T01:46:45.460Z,700.00
2023-05-10T01:47:45.496Z,699.00
2023-05-10T01:48:45.420Z,701.00
2023-05-10T01:49:45.462Z,701.00
2023-05-10T01:50:45.487Z,702.00
2023-05-10T01:51:45.547Z,704.00
2023-05-10T01:52:45.484Z,703.00
2023-05-10T01:53:45.477Z,701.00
2023-05-10T01:54:45.472Z,700.00
2023-05-10T01:55:45.462Z,700.00
2023-05-10T01:56:45.475Z,700.00
2023-05-10T01:58:21.087Z,697.00
2023-05-10T01:59:21.086Z,699.00
2023-05-10T02:00:21.104Z,698.00
2023-05-10T02:01:21.110Z,697.00
2023-05-10T02:02:21.109Z,695.00
2023-05-10T02:03:21.118Z,695.00
2023-05-10T02:04:21.263Z,696.00
2023-05-10T02:05:21.057Z,698.00
2023-05-10T02:06:21.082Z,701.00
2023-05-10T02:07:21.034Z,701.00
2023-05-10T02:08:21.810Z,701.00
2023-05-10T02:09:21.292Z,700.00
2023-05-10T02:10:21.033Z,699.00
2023-05-10T02:11:21.029Z,698.00
2023-05-10T02:12:21.023Z,700.00
2023-05-10T02:13:21.080Z,698.00
2023-05-10T02:14:21.269Z,696.00
2023-05-10T02:15:21.043Z,697.00
2023-05-10T02:16:21.056Z,696.00
2023-05-10T02:17:20.986Z,694.00
2023-05-10T02:18:21.006Z,696.00
2023-05-10T02:19:21.265Z,698.00
2023-05-10T02:20:20.939Z,696.00
2023-05-10T02:21:20.949Z,700.00
2023-05-10T02:22:20.983Z,702.00
2023-05-10T02:23:20.963Z,702.00
2023-05-10T02:24:21.272Z,703.00
2023-05-10T02:25:20.962Z,702.00
2023-05-10T02:26:20.950Z,703.00
2023-05-10T02:27:20.950Z,704.00
2023-05-10T02:28:20.923Z,702.00
2023-05-10T02:29:20.931Z,704.00
2023-05-10T02:30:20.926Z,705.00
2023-05-10T02:31:21.002Z,704.00
2023-05-10T02:32:20.905Z,702.00
2023-05-10T02:33:20.878Z,702.00
2023-05-10T02:34:21.315Z,699.00
2023-05-10T02:35:20.838Z,696.00
2023-05-10T02:36:20.848Z,695.00
2023-05-10T02:37:20.852Z,693.00
2023-05-10T02:38:20.843Z,694.00
2023-05-10T02:39:20.857Z,693.00
2023-05-10T02:40:20.854Z,692.00
2023-05-10T02:41:20.824Z,693.00
2023-05-10T02:42:20.801Z,695.00
2023-05-10T02:43:20.816Z,697.00
2023-05-10T02:44:21.285Z,698.00
2023-05-10T02:45:20.773Z,697.00
2023-05-10T02:46:20.803Z,697.00
2023-05-10T02:47:20.798Z,696.00
2023-05-10T02:48:20.777Z,698.00
2023-05-10T02:49:20.808Z,699.00
2023-05-10T02:50:20.744Z,697.00
2023-05-10T02:51:20.760Z,698.00
2023-05-10T02:52:20.759Z,702.00
2023-05-10T02:53:20.747Z,701.00
2023-05-10T02:54:20.733Z,701.00
2023-05-10T02:55:20.753Z,701.00
2023-05-10T02:56:20.705Z,702.00
2023-05-10T02:57:20.723Z,702.00
2023-05-10T02:58:20.705Z,703.00
2023-05-10T02:59:20.835Z,706.00
2023-05-10T03:00:20.696Z,707.00
2023-05-10T03:01:20.709Z,707.00
2023-05-10T03:02:20.709Z,704.00
2023-05-10T03:03:20.689Z,704.00
2023-05-10T03:04:20.845Z,707.00
2023-05-10T03:05:20.658Z,705.00
2023-05-10T03:06:20.630Z,704.00
2023-05-10T03:07:20.657Z,704.00
2023-05-10T03:08:20.644Z,702.00
2023-05-10T03:09:20.832Z,702.00
2023-05-10T03:10:20.638Z,700.00
2023-05-10T03:11:20.621Z,700.00
2023-05-10T03:12:20.595Z,701.00
2023-05-10T03:13:20.681Z,700.00
2023-05-10T03:14:20.620Z,702.00
2023-05-10T03:15:20.587Z,703.00
2023-05-10T03:16:20.617Z,702.00
2023-05-10T03:17:20.565Z,701.00
2023-05-10T03:18:20.573Z,702.00
2023-05-10T03:19:20.550Z,700.00
2023-05-10T03:20:20.565Z,701.00
2023-05-10T03:21:20.530Z,700.00
2023-05-10T03:22:20.538Z,699.00
2023-05-10T03:23:20.561Z,701.00
2023-05-10T03:24:20.557Z,701.00
2023-05-10T03:25:20.519Z,699.00
2023-05-10T03:26:20.538Z,697.00
2023-05-10T03:27:20.504Z,699.00
2023-05-10T03:28:20.488Z,697.00
2023-05-10T03:29:20.843Z,695.00
2023-05-10T03:30:20.468Z,695.00
2023-05-10T03:31:20.508Z,698.00
2023-05-10T03:32:20.431Z,700.00
2023-05-10T03:33:20.427Z,701.00
2023-05-10T03:34:20.443Z,703.00
2023-05-10T03:35:20.453Z,706.00
2023-05-10T03:36:20.429Z,708.00
2023-05-10T03:37:20.423Z,709.00
2023-05-10T03:38:20.445Z,708.00
2023-05-10T03:39:20.406Z,706.00
2023-05-10T03:40:20.386Z,704.00
2023-05-10T03:41:20.395Z,704.00
2023-05-10T03:42:20.391Z,700.00
2023-05-10T03:43:20.394Z,699.00
2023-05-10T03:44:20.389Z,697.00
2023-05-10T03:45:20.354Z,696.00
2023-05-10T03:46:20.425Z,695.00
2023-05-10T03:47:20.364Z,695.00
2023-05-10T03:48:20.376Z,695.00
2023-05-10T03:49:20.336Z,698.00
2023-05-10T03:50:20.391Z,700.00
2023-05-10T03:51:20.340Z,700.00
2023-05-10T03:52:20.329Z,701.00
2023-05-10T03:53:20.326Z,700.00
2023-05-10T03:54:20.359Z,701.00
2023-05-10T03:55:20.318Z,700.00
2023-05-10T03:56:20.287Z,701.00
2023-05-10T03:57:20.291Z,702.00
2023-05-10T03:58:20.280Z,702.00
2023-05-10T03:59:20.243Z,701.00
2023-05-10T04:00:20.250Z,701.00
2023-05-10T04:01:20.260Z,700.00
2023-05-10T04:02:20.301Z,698.00
2023-05-10T04:03:20.269Z,699.00
2023-05-10T04:04:20.322Z,700.00
2023-05-10T04:05:20.256Z,699.00
2023-05-10T04:06:20.239Z,699.00
2023-05-10T04:07:20.225Z,697.00
2023-05-10T04:08:20.248Z,696.00
2023-05-10T04:09:20.259Z,696.00
2023-05-10T04:10:20.221Z,696.00
2023-05-10T04:11:20.194Z,693.00
2023-05-10T04:12:20.178Z,694.00
2023-05-10T04:13:20.200Z,695.00
2023-05-10T04:14:20.159Z,696.00
2023-05-10T04:15:20.162Z,694.00
2023-05-10T04:16:20.189Z,694.00
2023-05-10T04:17:20.224Z,693.00
2023-05-10T04:18:20.124Z,692.00
2023-05-10T04:19:20.108Z,693.00
2023-05-10T04:20:20.145Z,692.00
2023-05-10T04:21:20.111Z,689.00
2023-05-10T04:22:20.110Z,690.00
2023-05-10T04:23:20.097Z,691.00
2023-05-10T04:24:20.404Z,691.00
2023-05-10T04:25:20.088Z,690.00
2023-05-10T04:26:20.058Z,688.00
2023-05-10T04:27:20.076Z,688.00
2023-05-10T04:28:20.047Z,687.00
2023-05-10T04:29:20.061Z,686.00
2023-05-10T04:30:20.051Z,690.00
2023-05-10T04:31:20.261Z,690.00
2023-05-10T04:32:20.033Z,690.00
2023-05-10T04:33:20.054Z,693.00
2023-05-10T04:34:20.018Z,692.00
2023-05-10T04:35:20.023Z,693.00
2023-05-10T04:36:20.014Z,693.00
2023-05-10T04:37:19.986Z,693.00
2023-05-10T04:38:20.014Z,695.00
2023-05-10T04:39:20.003Z,694.00
2023-05-10T04:40:20.008Z,695.00
2023-05-10T04:41:19.957Z,696.00
2023-05-10T04:42:19.963Z,696.00
2023-05-10T04:43:19.953Z,696.00
2023-05-10T04:44:19.964Z,697.00
2023-05-10T04:45:19.951Z,697.00
2023-05-10T04:46:19.959Z,697.00
2023-05-10T04:47:19.994Z,692.00
2023-05-10T04:48:19.920Z,690.00
2023-05-10T04:49:20.355Z,688.00
2023-05-10T04:50:19.903Z,687.00
2023-05-10T04:51:19.896Z,688.00
2023-05-10T04:52:19.917Z,687.00
2023-05-10T04:53:19.902Z,687.00
2023-05-10T04:54:19.870Z,687.00
2023-05-10T04:55:19.859Z,688.00
2023-05-10T04:56:19.858Z,686.00
2023-05-10T04:57:19.893Z,685.00
2023-05-10T04:58:19.918Z,681.00
2023-05-10T04:59:19.876Z,682.00
2023-05-10T05:00:19.899Z,685.00
2023-05-10T05:01:19.910Z,683.00
2023-05-10T05:02:19.925Z,682.00
2023-05-10T05:03:20.039Z,684.00
2023-05-10T05:04:20.358Z,686.00
2023-05-10T05:05:19.933Z,687.00
2023-05-10T05:06:19.969Z,687.00
2023-05-10T05:07:19.920Z,688.00
2023-05-10T05:08:19.947Z,688.00
2023-05-10T05:09:19.991Z,689.00
2023-05-10T05:10:20.226Z,688.00
2023-05-10T05:11:19.981Z,687.00
2023-05-10T05:12:19.965Z,684.00
2023-05-10T05:13:20.076Z,684.00
2023-05-10T05:14:19.982Z,687.00
2023-05-10T05:15:20.002Z,688.00
2023-05-10T05:16:20.048Z,689.00
2023-05-10T05:17:20.017Z,689.00
2023-05-10T05:18:20.001Z,690.00
2023-05-10T05:19:20.024Z,690.00
2023-05-10T05:20:20.092Z,692.00
2023-05-10T05:21:20.056Z,694.00
2023-05-10T05:22:20.060Z,693.00
2023-05-10T05:23:20.063Z,694.00
2023-05-10T05:24:20.071Z,693.00
2023-05-10T05:25:20.077Z,693.00
2023-05-10T05:26:20.090Z,692.00
2023-05-10T05:27:20.097Z,689.00
2023-05-10T05:28:20.093Z,687.00
2023-05-10T05:29:20.100Z,687.00
2023-05-10T05:30:20.101Z,684.00
2023-05-10T05:31:20.159Z,683.00
2023-05-10T05:32:20.117Z,685.00
2023-05-10T05:33:20.107Z,684.00
2023-05-10T05:34:20.113Z,684.00
2023-05-10T05:35:20.145Z,686.00
2023-05-10T05:36:20.130Z,683.00
2023-05-10T05:37:20.162Z,683.00
2023-05-10T05:38:20.127Z,682.00
2023-05-10T05:39:20.161Z,680.00
2023-05-10T05:40:20.180Z,681.00
2023-05-10T05:41:20.144Z,682.00
2023-05-10T05:42:20.147Z,681.00
2023-05-10T05:43:20.154Z,682.00
2023-05-10T05:44:20.384Z,682.00
2023-05-10T05:45:20.363Z,683.00
2023-05-10T05:46:20.187Z,683.00
2023-05-10T05:47:20.180Z,682.00
2023-05-10T05:48:20.186Z,681.00
2023-05-10T05:49:20.412Z,682.00
2023-05-10T05:50:20.184Z,682.00
2023-05-10T05:51:20.170Z,683.00
2023-05-10T05:52:20.213Z,682.00
2023-05-10T05:53:20.204Z,683.00
2023-05-10T05:54:20.393Z,682.00
2023-05-10T05:55:20.249Z,680.00
2023-05-10T05:56:20.239Z,682.00
2023-05-10T05:57:20.253Z,680.00
2023-05-10T05:58:20.265Z,682.00
2023-05-10T05:59:20.278Z,683.00
2023-05-10T06:00:20.273Z,684.00
2023-05-10T06:01:20.300Z,685.00
2023-05-10T06:02:20.317Z,683.00
2023-05-10T06:03:20.408Z,683.00
2023-05-10T06:04:20.417Z,685.00
2023-05-10T06:05:20.328Z,688.00
2023-05-10T06:06:20.324Z,699.00
2023-05-10T06:07:20.333Z,726.00
2023-05-10T06:08:20.307Z,730.00
2023-05-10T06:09:20.395Z,735.00
2023-05-10T06:10:20.349Z,737.00
2023-05-10T06:11:20.301Z,742.00
2023-05-10T06:12:20.314Z,750.00
2023-05-10T06:13:20.350Z,756.00
2023-05-10T06:14:20.382Z,760.00
2023-05-10T06:15:20.332Z,774.00
2023-05-10T06:16:20.369Z,788.00
2023-05-10T06:17:20.290Z,804.00
2023-05-10T06:18:20.309Z,810.00
2023-05-10T06:19:20.893Z,823.00
2023-05-10T06:20:20.312Z,832.00
2023-05-10T06:21:20.354Z,839.00
2023-05-10T06:22:20.368Z,842.00
2023-05-10T06:23:20.360Z,852.00
2023-05-10T06:24:20.915Z,860.00
2023-05-10T06:25:20.504Z,868.00
2023-05-10T06:26:20.570Z,876.00
2023-05-10T06:27:20.634Z,881.00
2023-05-10T06:28:20.639Z,886.00
2023-05-10T06:29:20.900Z,890.00
2023-05-10T06:30:20.726Z,890.00
2023-05-10T06:31:20.823Z,895.00
2023-05-10T06:32:20.843Z,898.00
2023-05-10T06:33:20.918Z,900.00
2023-05-10T06:34:21.393Z,903.00
2023-05-10T06:35:21.042Z,909.00
2023-05-10T06:36:21.086Z,916.00
2023-05-10T06:37:21.166Z,921.00
2023-05-10T06:38:21.230Z,922.00
2023-05-10T06:39:21.300Z,930.00
2023-05-10T06:40:21.345Z,933.00
2023-05-10T06:41:23.855Z,939.00
2023-05-10T06:42:21.462Z,941.00
2023-05-10T06:43:21.403Z,944.00
2023-05-10T06:44:21.425Z,947.00
2023-05-10T06:45:21.407Z,949.00
2023-05-10T06:46:21.424Z,953.00
2023-05-10T06:47:21.366Z,959.00
2023-05-10T06:48:21.405Z,962.00
2023-05-10T06:49:21.351Z,967.00
2023-05-10T06:50:21.411Z,972.00
2023-05-10T06:51:21.333Z,976.00
2023-05-10T06:52:21.371Z,981.00
2023-05-10T06:53:21.333Z,986.00
2023-05-10T06:54:21.342Z,990.00
2023-05-10T06:55:21.344Z,993.00
2023-05-10T06:56:21.315Z,993.00
2023-05-10T06:57:31.275Z,995.00
2023-05-10T06:58:22.274Z,997.00
2023-05-10T06:59:21.304Z,997.00
2023-05-10T07:00:21.496Z,1003.00
2023-05-10T07:01:21.382Z,1010.00
2023-05-10T07:02:21.302Z,1014.00
2023-05-10T07:03:21.303Z,1021.00
2023-05-10T07:04:21.316Z,1027.00
2023-05-10T07:05:21.737Z,1030.00
2023-05-10T07:06:32.192Z,1031.00
2023-05-10T07:07:22.226Z,1031.00
2023-05-10T07:08:21.241Z,1033.00
2023-05-10T07:09:21.218Z,1036.00
2023-05-10T07:10:21.445Z,1040.00
2023-05-10T07:11:21.196Z,1041.00
2023-05-10T07:12:21.233Z,1044.00
2023-05-10T07:13:21.290Z,1047.00
2023-05-10T07:14:21.172Z,1053.00
2023-05-10T07:15:21.200Z,1059.00
2023-05-10T07:16:21.245Z,1061.00
2023-05-10T07:17:21.332Z,1068.00
2023-05-10T07:18:21.360Z,1070.00
2023-05-10T07:19:21.355Z,1077.00
2023-05-10T07:20:21.420Z,1084.00
2023-05-10T07:21:21.561Z,1092.00
2023-05-10T07:22:21.513Z,1097.00
2023-05-10T07:23:21.552Z,1100.00
2023-05-10T07:24:21.601Z,1107.00
2023-05-10T07:25:21.640Z,1108.00
2023-05-10T07:26:21.685Z,1109.00
2023-05-10T07:27:21.717Z,1112.00
2023-05-10T07:28:21.770Z,1115.00
2023-05-10T07:29:21.780Z,1118.00
2023-05-10T07:30:21.884Z,1119.00
2023-05-10T07:31:21.841Z,1126.00
2023-05-10T07:32:22.018Z,1126.00
2023-05-10T07:33:22.028Z,1110.00
2023-05-10T07:34:22.015Z,1054.00
2023-05-10T07:35:22.073Z,1065.00
2023-05-10T07:36:22.097Z,1083.00
2023-05-10T07:37:22.201Z,1093.00
2023-05-10T07:38:22.200Z,1101.00
2023-05-10T07:39:27.227Z,1108.00
2023-05-10T07:40:23.440Z,1112.00
2023-05-10T07:41:22.218Z,1111.00
2023-05-10T07:42:22.242Z,1111.00
2023-05-10T07:43:22.199Z,1107.00
2023-05-10T07:44:22.219Z,1105.00
2023-05-10T07:45:22.202Z,1106.00
2023-05-10T07:46:22.359Z,1109.00
2023-05-10T07:47:22.190Z,1109.00
2023-05-10T07:48:22.935Z,1112.00
2023-05-10T07:49:22.146Z,1116.00
2023-05-10T07:50:22.210Z,1119.00
2023-05-10T07:51:22.201Z,1120.00
2023-05-10T07:52:22.782Z,1125.00
2023-05-10T07:53:22.301Z,1129.00
2023-05-10T07:54:22.328Z,1129.00
2023-05-10T07:55:22.369Z,1133.00
2023-05-10T07:56:22.430Z,1138.00
2023-05-10T07:57:22.442Z,1145.00
2023-05-10T07:58:22.495Z,1147.00
2023-05-10T07:59:22.491Z,1150.00
2023-05-10T08:00:22.570Z,1152.00
2023-05-10T08:01:22.574Z,1156.00
2023-05-10T08:02:22.632Z,1157.00
2023-05-10T08:03:22.745Z,1157.00
2023-05-10T08:04:22.699Z,1157.00
2023-05-10T08:05:22.728Z,1161.00
2023-05-10T08:06:22.736Z,1165.00
2023-05-10T08:07:22.789Z,1169.00
2023-05-10T08:08:22.786Z,1173.00
2023-05-10T08:09:22.861Z,1177.00
2023-05-10T08:10:22.945Z,1175.00
2023-05-10T08:11:22.914Z,1176.00
2023-05-10T08:12:22.921Z,1180.00
2023-05-10T08:13:22.972Z,1185.00
2023-05-10T08:14:22.982Z,1182.00
2023-05-10T08:15:23.059Z,1173.00
2023-05-10T08:16:23.183Z,1080.00
2023-05-10T08:17:24.820Z,1107.00
2023-05-10T08:18:23.223Z,1169.00
2023-05-10T08:19:23.151Z,1177.00
2023-05-10T08:20:23.234Z,1177.00
2023-05-10T08:21:23.263Z,1175.00
2023-05-10T08:22:23.286Z,1177.00
2023-05-10T08:23:23.326Z,1177.00
2023-05-10T08:24:23.345Z,1174.00
2023-05-10T08:25:23.389Z,1166.00
2023-05-10T08:26:23.417Z,1160.00
2023-05-10T08:27:23.474Z,1156.00
2023-05-10T08:28:23.538Z,1147.00
2023-05-10T08:29:23.534Z,1147.00
2023-05-10T08:30:23.967Z,1150.00
2023-05-10T08:31:23.727Z,1151.00
2023-05-10T08:32:23.670Z,1150.00
2023-05-10T08:33:23.724Z,1147.00
2023-05-10T08:34:23.931Z,1148.00
2023-05-10T08:35:23.792Z,1148.00
2023-05-10T08:36:23.836Z,1150.00
2023-05-10T08:37:23.897Z,1150.00
2023-05-10T08:38:23.970Z,1155.00
2023-05-10T08:39:30.316Z,1159.00
2023-05-10T08:40:25.435Z,1164.00
2023-05-10T08:41:23.983Z,1166.00
2023-05-10T08:42:23.948Z,1171.00
2023-05-10T08:43:23.919Z,1168.00
2023-05-10T08:44:23.930Z,1164.00
2023-05-10T08:45:23.970Z,1165.00
2023-05-10T08:46:23.990Z,1167.00
2023-05-10T08:47:23.963Z,1169.00
2023-05-10T08:48:23.928Z,1171.00
2023-05-10T08:49:23.900Z,1173.00
2023-05-10T08:50:23.898Z,1175.00
2023-05-10T08:51:23.881Z,1179.00
2023-05-10T08:52:23.976Z,1177.00
2023-05-10T08:53:23.973Z,1178.00
2023-05-10T08:54:24.018Z,1179.00
2023-05-10T08:55:24.056Z,1182.00
2023-05-10T08:56:24.045Z,1184.00
2023-05-10T08:57:24.066Z,1189.00
2023-05-10T08:58:24.137Z,1190.00
2023-05-10T08:59:24.160Z,1191.00
2023-05-10T09:00:24.513Z,1195.00
2023-05-10T09:01:24.259Z,1195.00
2023-05-10T09:02:24.259Z,1185.00
2023-05-10T09:03:24.255Z,1176.00
2023-05-10T09:04:24.351Z,1165.00
2023-05-10T09:05:24.481Z,983.00
2023-05-10T09:06:24.362Z,984.00
2023-05-10T09:07:24.407Z,999.00
2023-05-10T09:08:24.420Z,1095.00
2023-05-10T09:09:24.490Z,1114.00
2023-05-10T09:10:24.970Z,1126.00
2023-05-10T09:11:24.603Z,1139.00
2023-05-10T09:12:24.578Z,1149.00
2023-05-10T09:13:24.634Z,1153.00
2023-05-10T09:14:24.651Z,1147.00
2023-05-10T09:15:25.000Z,1141.00
2023-05-10T09:16:24.739Z,1133.00
2023-05-10T09:17:24.958Z,1133.00
2023-05-10T09:18:26.013Z,1134.00
2023-05-10T09:19:24.759Z,1139.00
2023-05-10T09:20:24.773Z,1144.00
2023-05-10T09:21:24.779Z,1147.00
2023-05-10T09:22:24.748Z,1151.00
2023-05-10T09:23:24.752Z,1152.00
2023-05-10T09:24:24.730Z,1153.00
2023-05-10T09:25:24.957Z,1155.00
2023-05-10T09:26:24.729Z,1156.00
2023-05-10T09:27:24.688Z,1156.00
2023-05-10T09:28:24.722Z,1157.00
2023-05-10T09:29:24.702Z,1157.00
2023-05-10T09:30:24.709Z,1160.00
2023-05-10T09:31:24.798Z,1161.00
2023-05-10T09:32:24.719Z,1164.00
2023-05-10T09:33:24.661Z,1169.00
2023-05-10T09:34:24.658Z,1173.00
2023-05-10T09:35:26.566Z,1177.00
2023-05-10T09:36:24.649Z,1183.00
2023-05-10T09:37:24.629Z,1186.00
2023-05-10T09:38:24.657Z,1189.00
2023-05-10T09:39:24.619Z,1194.00
2023-05-10T09:40:25.023Z,1198.00
2023-05-10T09:41:25.663Z,1206.00
2023-05-10T09:42:24.614Z,1210.00
2023-05-10T09:43:24.609Z,1213.00
2023-05-10T09:44:24.630Z,1221.00
2023-05-10T09:45:24.991Z,1227.00
2023-05-10T09:46:24.601Z,1228.00
2023-05-10T09:47:24.567Z,1231.00
2023-05-10T09:48:24.557Z,1233.00
2023-05-10T09:49:24.555Z,1236.00
2023-05-10T09:50:25.053Z,1238.00
2023-05-10T09:51:24.552Z,1238.00
2023-05-10T09:52:24.538Z,1245.00
2023-05-10T09:53:24.527Z,1247.00
2023-05-10T09:54:24.532Z,1252.00
2023-05-10T09:55:25.018Z,1256.00
2023-05-10T09:56:24.519Z,1258.00
2023-05-10T09:57:24.522Z,1259.00
2023-05-10T09:58:24.487Z,1259.00
2023-05-10T09:59:24.515Z,1262.00
2023-05-10T10:00:24.499Z,1267.00
2023-05-10T10:01:24.548Z,1271.00
2023-05-10T10:02:24.544Z,1274.00
2023-05-10T10:03:24.460Z,1282.00
2023-05-10T10:04:24.521Z,1287.00
2023-05-10T10:05:24.452Z,1291.00
2023-05-10T10:06:29.953Z,1297.00
2023-05-10T10:07:25.435Z,1299.00
2023-05-10T10:08:24.432Z,1302.00
2023-05-10T10:09:24.443Z,1301.00
2023-05-10T10:10:24.475Z,1303.00
2023-05-10T10:11:24.530Z,1306.00
2023-05-10T10:12:24.398Z,1308.00
2023-05-10T10:13:24.411Z,1314.00
2023-05-10T10:14:24.391Z,1320.00
2023-05-10T10:15:24.418Z,1324.00
2023-05-10T10:16:24.533Z,1325.00
2023-05-10T10:17:24.409Z,1328.00
2023-05-10T10:18:24.392Z,1330.00
2023-05-10T10:19:24.338Z,1332.00
2023-05-10T10:20:24.359Z,1335.00
2023-05-10T10:21:24.532Z,1339.00
2023-05-10T10:22:24.365Z,1344.00
2023-05-10T10:23:24.358Z,1346.00
2023-05-10T10:24:24.325Z,1349.00
2023-05-10T10:25:24.385Z,1353.00
2023-05-10T10:26:24.495Z,1352.00
2023-05-10T10:27:24.386Z,1355.00
2023-05-10T10:28:25.395Z,1360.00
2023-05-10T10:29:24.452Z,1359.00
2023-05-10T10:30:24.627Z,1362.00
2023-05-10T10:31:24.531Z,1362.00
2023-05-10T10:32:24.550Z,1366.00
2023-05-10T10:33:28.956Z,1370.00
2023-05-10T10:34:24.487Z,1370.00
2023-05-10T10:35:24.479Z,1374.00
2023-05-10T10:36:24.527Z,1376.00
2023-05-10T10:37:24.496Z,1377.00
2023-05-10T10:38:24.496Z,1378.00
2023-05-10T10:39:24.435Z,1382.00
2023-05-10T10:40:24.476Z,1386.00
2023-05-10T10:41:24.481Z,1388.00
2023-05-10T10:42:24.440Z,1393.00
2023-05-10T10:43:24.475Z,1399.00
2023-05-10T10:44:24.490Z,1405.00
2023-05-10T10:45:24.446Z,1413.00
2023-05-10T10:46:24.410Z,1416.00
2023-05-10T10:47:24.497Z,1416.00
2023-05-10T10:48:24.423Z,1423.00
2023-05-10T10:49:24.380Z,1426.00
2023-05-10T10:50:24.445Z,1429.00
2023-05-10T10:51:24.396Z,1430.00
2023-05-10T10:52:24.362Z,1436.00
2023-05-10T10:53:24.400Z,1440.00
2023-05-10T10:54:24.367Z,1446.00
2023-05-10T10:55:24.375Z,1450.00
2023-05-10T10:56:24.367Z,1454.00
2023-05-10T10:57:24.363Z,1459.00
2023-05-10T10:58:24.339Z,1464.00
2023-05-10T10:59:24.335Z,1466.00
2023-05-10T11:00:24.353Z,1470.00
2023-05-10T11:01:24.634Z,1477.00
2023-05-10T11:02:24.492Z,1479.00
2023-05-10T11:03:24.585Z,1481.00
2023-05-10T11:04:24.620Z,1481.00
2023-05-10T11:05:24.695Z,1481.00
2023-05-10T11:06:24.672Z,1488.00
2023-05-10T11:07:24.677Z,1492.00
2023-05-10T11:08:24.672Z,1495.00
2023-05-10T11:09:24.736Z,1495.00
2023-05-10T11:10:24.836Z,1496.00
2023-05-10T11:11:25.026Z,1494.00
2023-05-10T11:12:24.864Z,1495.00
2023-05-10T11:13:24.910Z,1495.00
2023-05-10T11:14:24.895Z,1497.00
2023-05-10T11:15:24.911Z,1498.00
2023-05-10T11:16:25.236Z,1494.00
2023-05-10T11:17:25.095Z,1493.00
2023-05-10T11:18:24.993Z,1492.00
2023-05-10T11:19:24.997Z,1488.00
2023-05-10T11:20:25.064Z,1485.00
2023-05-10T11:21:25.529Z,1481.00
2023-05-10T11:22:25.078Z,1478.00
2023-05-10T11:23:25.126Z,1469.00
2023-05-10T11:24:25.137Z,1411.00
2023-05-10T11:25:25.166Z,1411.00
2023-05-10T11:26:25.521Z,1412.00
2023-05-10T11:27:25.211Z,1410.00
2023-05-10T11:28:25.273Z,1398.00
2023-05-10T11:29:25.288Z,1386.00
2023-05-10T11:30:25.284Z,1323.00
2023-05-10T11:31:25.536Z,1320.00
2023-05-10T11:32:25.418Z,1302.00
2023-05-10T11:33:25.423Z,1279.00
2023-05-10T11:34:25.447Z,1280.00
2023-05-10T11:35:25.483Z,1296.00
2023-05-10T11:36:25.537Z,1305.00
2023-05-10T11:37:25.534Z,1299.00
2023-05-10T11:38:25.611Z,1266.00
2023-05-10T11:39:25.671Z,1251.00
2023-05-10T11:40:25.665Z,1253.00
2023-05-10T11:41:25.702Z,1248.00
2023-05-10T11:42:25.743Z,1243.00
2023-05-10T11:43:25.733Z,1229.00
2023-05-10T11:44:25.788Z,1222.00
2023-05-10T11:45:25.856Z,1213.00
2023-05-10T11:46:26.167Z,1206.00
2023-05-10T11:47:26.014Z,1197.00
2023-05-10T11:48:25.929Z,1193.00
2023-05-10T11:49:25.945Z,1190.00
2023-05-10T11:50:25.994Z,1186.00
2023-05-10T11:51:26.066Z,1185.00
2023-05-10T11:52:26.021Z,1184.00
2023-05-10T11:53:26.084Z,1186.00
2023-05-10T11:54:26.136Z,1186.00
2023-05-10T11:55:26.140Z,1186.00
2023-05-10T11:56:26.190Z,1190.00
2023-05-10T11:57:26.215Z,1189.00
2023-05-10T11:58:26.227Z,1185.00
2023-05-10T11:59:26.321Z,1183.00
2023-05-10T12:00:26.337Z,1182.00
2023-05-10T12:01:26.344Z,1182.00
2023-05-10T12:02:26.557Z,1180.00
2023-05-10T12:03:26.565Z,1178.00
2023-05-10T12:04:26.569Z,1177.00
2023-05-10T12:05:26.524Z,1177.00
2023-05-10T12:06:26.561Z,1175.00
2023-05-10T12:07:26.605Z,1174.00
2023-05-10T12:08:26.662Z,1173.00
2023-05-10T12:10:26.671Z,1172.00
2023-05-10T12:11:27.051Z,1170.00
2023-05-10T12:12:26.671Z,1167.00
2023-05-10T12:13:26.685Z,1167.00
2023-05-10T12:14:26.641Z,1169.00
2023-05-10T12:15:26.673Z,1167.00
2023-05-10T12:16:27.170Z,1164.00
2023-05-10T12:17:26.668Z,1160.00
2023-05-10T12:18:26.711Z,1160.00
2023-05-10T12:19:26.617Z,1159.00
2023-05-10T12:20:26.619Z,1158.00